sensor_id;sensor_type;location;lat;lon;timestamp;P1;durP1;ratioP1;P2;durP2;ratioP2
54679;SDS011;40578;53.178;5.846;2023-02-28T00:01:18;12.73;;;3.80;;
54679;SDS011;40578;53.178;5.846;2023-02-28T00:03:44;12.20;;;4.50;;
54679;SDS011;40578;53.178;5.846;2023-02-28T00:06:10;13.17;;;4.07;;
54679;SDS011;40578;53.178;5.846;2023-02-28T00:08:36;9.13;;;4.20;;
54679;SDS011;40578;53.178;5.846;2023-02-28T00:11:03;8.95;;;3.85;;
54679;SDS011;40578;53.178;5.846;2023-02-28T00:13:30;8.32;;;3.95;;
54679;SDS011;40578;53.178;5.846;2023-02-28T00:16:03;9.18;;;4.00;;
54679;SDS011;40578;53.178;5.846;2023-02-28T00:18:30;13.70;;;3.90;;
54679;SDS011;40578;53.178;5.846;2023-02-28T00:20:56;11.50;;;3.60;;
54679;SDS011;40578;53.178;5.846;2023-02-28T00:23:23;9.57;;;4.10;;
54679;SDS011;40578;53.178;5.846;2023-02-28T00:25:49;11.35;;;4.18;;
54679;SDS011;40578;53.178;5.846;2023-02-28T00:28:15;7.25;;;3.78;;
54679;SDS011;40578;53.178;5.846;2023-02-28T00:30:41;11.13;;;4.23;;
54679;SDS011;40578;53.178;5.846;2023-02-28T00:33:06;14.30;;;3.83;;
54679;SDS011;40578;53.178;5.846;2023-02-28T00:35:32;14.40;;;3.80;;
54679;SDS011;40578;53.178;5.846;2023-02-28T00:37:58;11.63;;;4.07;;
54679;SDS011;40578;53.178;5.846;2023-02-28T00:40:23;13.93;;;3.80;;
54679;SDS011;40578;53.178;5.846;2023-02-28T00:42:49;9.90;;;3.67;;
54679;SDS011;40578;53.178;5.846;2023-02-28T00:45:15;12.17;;;4.20;;
54679;SDS011;40578;53.178;5.846;2023-02-28T00:47:40;10.13;;;4.13;;
54679;SDS011;40578;53.178;5.846;2023-02-28T00:50:06;10.53;;;3.80;;
54679;SDS011;40578;53.178;5.846;2023-02-28T00:52:32;10.30;;;4.13;;
54679;SDS011;40578;53.178;5.846;2023-02-28T00:54:58;8.07;;;3.73;;
54679;SDS011;40578;53.178;5.846;2023-02-28T00:57:23;14.47;;;3.53;;
54679;SDS011;40578;53.178;5.846;2023-02-28T00:59:49;11.13;;;3.53;;
54679;SDS011;40578;53.178;5.846;2023-02-28T01:02:15;11.17;;;3.37;;
54679;SDS011;40578;53.178;5.846;2023-02-28T01:04:40;9.77;;;3.30;;
54679;SDS011;40578;53.178;5.846;2023-02-28T01:07:06;11.03;;;3.63;;
54679;SDS011;40578;53.178;5.846;2023-02-28T01:09:31;16.17;;;4.10;;
54679;SDS011;40578;53.178;5.846;2023-02-28T01:11:57;10.00;;;3.77;;
54679;SDS011;40578;53.178;5.846;2023-02-28T01:14:23;9.20;;;3.63;;
54679;SDS011;40578;53.178;5.846;2023-02-28T01:16:48;9.60;;;4.03;;
54679;SDS011;40578;53.178;5.846;2023-02-28T01:19:14;9.27;;;3.50;;
54679;SDS011;40578;53.178;5.846;2023-02-28T01:21:41;8.38;;;3.83;;
54679;SDS011;40578;53.178;5.846;2023-02-28T01:24:06;13.27;;;3.60;;
54679;SDS011;40578;53.178;5.846;2023-02-28T01:26:32;9.37;;;3.83;;
54679;SDS011;40578;53.178;5.846;2023-02-28T01:28:58;9.03;;;3.27;;
54679;SDS011;40578;53.178;5.846;2023-02-28T01:31:23;7.40;;;3.93;;
54679;SDS011;40578;53.178;5.846;2023-02-28T01:33:50;11.40;;;3.25;;
54679;SDS011;40578;53.178;5.846;2023-02-28T01:36:20;16.53;;;3.60;;
54679;SDS011;40578;53.178;5.846;2023-02-28T01:38:47;8.68;;;3.47;;
54679;SDS011;40578;53.178;5.846;2023-02-28T01:41:18;12.15;;;3.63;;
54679;SDS011;40578;53.178;5.846;2023-02-28T01:46:14;10.37;;;3.70;;
54679;SDS011;40578;53.178;5.846;2023-02-28T01:51:24;12.85;;;3.72;;
54679;SDS011;40578;53.178;5.846;2023-02-28T01:54:36;9.88;;;3.45;;
54679;SDS011;40578;53.178;5.846;2023-02-28T01:57:04;10.10;;;3.70;;
54679;SDS011;40578;53.178;5.846;2023-02-28T01:59:38;14.68;;;4.65;;
54679;SDS011;40578;53.178;5.846;2023-02-28T02:02:16;13.57;;;5.43;;
54679;SDS011;40578;53.178;5.846;2023-02-28T02:04:53;14.55;;;5.78;;
54679;SDS011;40578;53.178;5.846;2023-02-28T02:07:29;14.45;;;5.85;;
54679;SDS011;40578;53.178;5.846;2023-02-28T02:10:27;13.25;;;6.85;;
54679;SDS011;40578;53.178;5.846;2023-02-28T02:13:12;13.32;;;6.68;;
54679;SDS011;40578;53.178;5.846;2023-02-28T02:18:50;12.27;;;6.00;;
54679;SDS011;40578;53.178;5.846;2023-02-28T02:32:28;10.48;;;5.10;;
54679;SDS011;40578;53.178;5.846;2023-02-28T02:42:50;13.85;;;5.45;;
54679;SDS011;40578;53.178;5.846;2023-02-28T02:48:01;12.27;;;5.15;;
54679;SDS011;40578;53.178;5.846;2023-02-28T02:50:31;20.35;;;5.15;;
54679;SDS011;40578;53.178;5.846;2023-02-28T02:53:02;10.27;;;4.63;;
54679;SDS011;40578;53.178;5.846;2023-02-28T02:55:31;16.63;;;4.60;;
54679;SDS011;40578;53.178;5.846;2023-02-28T02:58:03;8.65;;;4.20;;
54679;SDS011;40578;53.178;5.846;2023-02-28T03:00:41;13.10;;;4.85;;
54679;SDS011;40578;53.178;5.846;2023-02-28T03:03:11;10.20;;;4.47;;
54679;SDS011;40578;53.178;5.846;2023-02-28T03:05:42;14.43;;;4.53;;
54679;SDS011;40578;53.178;5.846;2023-02-28T03:08:11;12.98;;;4.70;;
54679;SDS011;40578;53.178;5.846;2023-02-28T03:10:38;14.10;;;4.80;;
54679;SDS011;40578;53.178;5.846;2023-02-28T03:13:11;11.13;;;3.92;;
54679;SDS011;40578;53.178;5.846;2023-02-28T03:19:03;11.00;;;3.90;;
54679;SDS011;40578;53.178;5.846;2023-02-28T03:21:43;9.82;;;3.78;;
54679;SDS011;40578;53.178;5.846;2023-02-28T03:24:19;9.23;;;3.60;;
54679;SDS011;40578;53.178;5.846;2023-02-28T03:26:57;9.68;;;3.70;;
54679;SDS011;40578;53.178;5.846;2023-02-28T03:29:33;14.98;;;4.18;;
54679;SDS011;40578;53.178;5.846;2023-02-28T03:32:08;11.90;;;3.75;;
54679;SDS011;40578;53.178;5.846;2023-02-28T03:34:44;12.55;;;3.88;;
54679;SDS011;40578;53.178;5.846;2023-02-28T03:37:29;10.32;;;3.45;;
54679;SDS011;40578;53.178;5.846;2023-02-28T03:40:08;7.88;;;3.30;;
54679;SDS011;40578;53.178;5.846;2023-02-28T03:42:39;8.23;;;4.00;;
54679;SDS011;40578;53.178;5.846;2023-02-28T03:45:18;12.20;;;3.65;;
54679;SDS011;40578;53.178;5.846;2023-02-28T03:47:52;12.10;;;3.67;;
54679;SDS011;40578;53.178;5.846;2023-02-28T03:50:36;8.57;;;3.72;;
54679;SDS011;40578;53.178;5.846;2023-02-28T03:53:11;8.13;;;3.60;;
54679;SDS011;40578;53.178;5.846;2023-02-28T03:56:00;13.60;;;3.80;;
54679;SDS011;40578;53.178;5.846;2023-02-28T03:58:44;7.85;;;3.63;;
54679;SDS011;40578;53.178;5.846;2023-02-28T04:04:07;11.85;;;3.78;;
54679;SDS011;40578;53.178;5.846;2023-02-28T04:06:34;9.45;;;3.80;;
54679;SDS011;40578;53.178;5.846;2023-02-28T04:09:01;11.20;;;3.67;;
54679;SDS011;40578;53.178;5.846;2023-02-28T04:14:02;12.80;;;3.92;;
54679;SDS011;40578;53.178;5.846;2023-02-28T04:16:29;7.38;;;3.25;;
54679;SDS011;40578;53.178;5.846;2023-02-28T04:18:55;8.10;;;3.40;;
54679;SDS011;40578;53.178;5.846;2023-02-28T04:21:28;9.57;;;3.60;;
54679;SDS011;40578;53.178;5.846;2023-02-28T04:23:55;11.15;;;3.50;;
54679;SDS011;40578;53.178;5.846;2023-02-28T04:26:21;10.15;;;3.28;;
54679;SDS011;40578;53.178;5.846;2023-02-28T04:28:46;6.17;;;3.10;;
54679;SDS011;40578;53.178;5.846;2023-02-28T04:31:12;7.70;;;3.03;;
54679;SDS011;40578;53.178;5.846;2023-02-28T04:33:37;15.23;;;3.53;;
54679;SDS011;40578;53.178;5.846;2023-02-28T04:36:04;9.57;;;3.03;;
54679;SDS011;40578;53.178;5.846;2023-02-28T04:38:33;9.73;;;3.22;;
54679;SDS011;40578;53.178;5.846;2023-02-28T04:41:00;9.68;;;3.20;;
54679;SDS011;40578;53.178;5.846;2023-02-28T04:43:26;10.90;;;3.70;;
54679;SDS011;40578;53.178;5.846;2023-02-28T04:45:53;12.20;;;3.50;;
54679;SDS011;40578;53.178;5.846;2023-02-28T04:48:25;11.05;;;3.58;;
54679;SDS011;40578;53.178;5.846;2023-02-28T04:50:53;13.15;;;3.50;;
54679;SDS011;40578;53.178;5.846;2023-02-28T04:53:18;7.60;;;3.07;;
54679;SDS011;40578;53.178;5.846;2023-02-28T04:55:44;10.18;;;3.45;;
54679;SDS011;40578;53.178;5.846;2023-02-28T04:58:11;10.43;;;3.83;;
54679;SDS011;40578;53.178;5.846;2023-02-28T05:00:37;12.93;;;3.83;;
54679;SDS011;40578;53.178;5.846;2023-02-28T05:03:02;8.70;;;3.23;;
54679;SDS011;40578;53.178;5.846;2023-02-28T05:05:28;10.60;;;3.70;;
54679;SDS011;40578;53.178;5.846;2023-02-28T05:07:54;10.53;;;3.40;;
54679;SDS011;40578;53.178;5.846;2023-02-28T05:10:20;9.30;;;3.40;;
54679;SDS011;40578;53.178;5.846;2023-02-28T05:12:47;11.70;;;4.05;;
54679;SDS011;40578;53.178;5.846;2023-02-28T05:15:13;12.52;;;3.75;;
54679;SDS011;40578;53.178;5.846;2023-02-28T05:17:40;11.07;;;3.45;;
54679;SDS011;40578;53.178;5.846;2023-02-28T05:20:06;14.43;;;3.80;;
54679;SDS011;40578;53.178;5.846;2023-02-28T05:22:35;12.25;;;3.47;;
54679;SDS011;40578;53.178;5.846;2023-02-28T05:25:05;12.02;;;3.78;;
54679;SDS011;40578;53.178;5.846;2023-02-28T05:27:31;10.95;;;3.28;;
54679;SDS011;40578;53.178;5.846;2023-02-28T05:29:56;9.10;;;3.90;;
54679;SDS011;40578;53.178;5.846;2023-02-28T05:32:22;13.23;;;4.47;;
54679;SDS011;40578;53.178;5.846;2023-02-28T05:34:48;14.03;;;4.47;;
54679;SDS011;40578;53.178;5.846;2023-02-28T05:37:13;11.73;;;4.70;;
54679;SDS011;40578;53.178;5.846;2023-02-28T05:42:06;12.82;;;4.53;;
54679;SDS011;40578;53.178;5.846;2023-02-28T05:44:32;11.38;;;4.43;;
54679;SDS011;40578;53.178;5.846;2023-02-28T05:46:58;8.88;;;4.25;;
54679;SDS011;40578;53.178;5.846;2023-02-28T05:49:24;12.63;;;4.30;;
54679;SDS011;40578;53.178;5.846;2023-02-28T05:51:49;9.33;;;5.87;;
54679;SDS011;40578;53.178;5.846;2023-02-28T05:54:15;11.03;;;6.67;;
54679;SDS011;40578;53.178;5.846;2023-02-28T05:56:41;10.47;;;7.07;;
54679;SDS011;40578;53.178;5.846;2023-02-28T05:59:09;14.88;;;9.93;;
54679;SDS011;40578;53.178;5.846;2023-02-28T06:01:37;18.75;;;10.43;;
54679;SDS011;40578;53.178;5.846;2023-02-28T06:04:08;15.57;;;10.43;;
54679;SDS011;40578;53.178;5.846;2023-02-28T06:06:35;17.90;;;11.70;;
54679;SDS011;40578;53.178;5.846;2023-02-28T06:09:03;15.80;;;11.52;;
54679;SDS011;40578;53.178;5.846;2023-02-28T06:11:30;21.85;;;12.75;;
54679;SDS011;40578;53.178;5.846;2023-02-28T06:13:56;16.07;;;11.53;;
54679;SDS011;40578;53.178;5.846;2023-02-28T06:16:24;12.75;;;9.32;;
54679;SDS011;40578;53.178;5.846;2023-02-28T06:18:51;12.38;;;8.45;;
54679;SDS011;40578;53.178;5.846;2023-02-28T06:21:21;14.52;;;8.32;;
54679;SDS011;40578;53.178;5.846;2023-02-28T06:23:47;12.75;;;8.02;;
54679;SDS011;40578;53.178;5.846;2023-02-28T06:26:13;13.13;;;8.47;;
54679;SDS011;40578;53.178;5.846;2023-02-28T06:28:38;13.77;;;9.30;;
54679;SDS011;40578;53.178;5.846;2023-02-28T06:31:12;13.50;;;8.77;;
54679;SDS011;40578;53.178;5.846;2023-02-28T06:33:39;15.15;;;8.73;;
54679;SDS011;40578;53.178;5.846;2023-02-28T06:38:32;13.05;;;8.88;;
54679;SDS011;40578;53.178;5.846;2023-02-28T06:40:58;14.93;;;9.52;;
54679;SDS011;40578;53.178;5.846;2023-02-28T06:43:25;11.65;;;8.68;;
54679;SDS011;40578;53.178;5.846;2023-02-28T06:45:54;13.57;;;9.30;;
54679;SDS011;40578;53.178;5.846;2023-02-28T06:48:20;13.95;;;8.82;;
54679;SDS011;40578;53.178;5.846;2023-02-28T06:50:46;15.97;;;10.53;;
54679;SDS011;40578;53.178;5.846;2023-02-28T06:53:13;17.60;;;11.00;;
54679;SDS011;40578;53.178;5.846;2023-02-28T06:55:39;17.90;;;11.07;;
54679;SDS011;40578;53.178;5.846;2023-02-28T06:58:07;16.20;;;10.07;;
54679;SDS011;40578;53.178;5.846;2023-02-28T07:00:45;18.35;;;11.88;;
54679;SDS011;40578;53.178;5.846;2023-02-28T07:03:15;17.45;;;11.82;;
54679;SDS011;40578;53.178;5.846;2023-02-28T07:05:40;20.10;;;13.07;;
54679;SDS011;40578;53.178;5.846;2023-02-28T07:08:06;25.17;;;13.63;;
54679;SDS011;40578;53.178;5.846;2023-02-28T07:10:32;21.67;;;13.55;;
54679;SDS011;40578;53.178;5.846;2023-02-28T07:13:08;23.83;;;13.75;;
54679;SDS011;40578;53.178;5.846;2023-02-28T07:15:37;25.27;;;13.75;;
54679;SDS011;40578;53.178;5.846;2023-02-28T07:18:02;23.25;;;13.77;;
54679;SDS011;40578;53.178;5.846;2023-02-28T07:20:28;22.97;;;14.47;;
54679;SDS011;40578;53.178;5.846;2023-02-28T07:22:54;26.67;;;14.80;;
54679;SDS011;40578;53.178;5.846;2023-02-28T07:25:24;23.42;;;14.50;;
54679;SDS011;40578;53.178;5.846;2023-02-28T07:27:51;25.00;;;14.80;;
54679;SDS011;40578;53.178;5.846;2023-02-28T07:30:18;23.13;;;14.43;;
54679;SDS011;40578;53.178;5.846;2023-02-28T07:32:44;28.23;;;15.97;;
54679;SDS011;40578;53.178;5.846;2023-02-28T07:35:10;24.90;;;14.68;;
54679;SDS011;40578;53.178;5.846;2023-02-28T07:37:37;25.17;;;15.73;;
54679;SDS011;40578;53.178;5.846;2023-02-28T07:40:03;25.50;;;15.55;;
54679;SDS011;40578;53.178;5.846;2023-02-28T07:42:32;26.25;;;15.85;;
54679;SDS011;40578;53.178;5.846;2023-02-28T07:44:57;24.83;;;14.97;;
54679;SDS011;40578;53.178;5.846;2023-02-28T07:47:24;23.65;;;14.85;;
54679;SDS011;40578;53.178;5.846;2023-02-28T07:49:49;29.33;;;15.70;;
54679;SDS011;40578;53.178;5.846;2023-02-28T07:52:15;27.63;;;16.13;;
54679;SDS011;40578;53.178;5.846;2023-02-28T07:54:41;27.27;;;15.93;;
54679;SDS011;40578;53.178;5.846;2023-02-28T07:57:06;28.83;;;15.97;;
54679;SDS011;40578;53.178;5.846;2023-02-28T07:59:32;31.90;;;16.87;;
54679;SDS011;40578;53.178;5.846;2023-02-28T08:01:57;29.97;;;16.97;;
54679;SDS011;40578;53.178;5.846;2023-02-28T08:07:13;30.27;;;17.33;;
54679;SDS011;40578;53.178;5.846;2023-02-28T08:09:39;29.92;;;17.00;;
54679;SDS011;40578;53.178;5.846;2023-02-28T08:12:06;30.83;;;17.90;;
54679;SDS011;40578;53.178;5.846;2023-02-28T08:14:32;29.08;;;17.25;;
54679;SDS011;40578;53.178;5.846;2023-02-28T08:17:09;31.52;;;18.15;;
54679;SDS011;40578;53.178;5.846;2023-02-28T08:19:40;33.88;;;17.15;;
54679;SDS011;40578;53.178;5.846;2023-02-28T08:22:06;28.63;;;17.00;;
54679;SDS011;40578;53.178;5.846;2023-02-28T08:24:38;27.33;;;16.40;;
54679;SDS011;40578;53.178;5.846;2023-02-28T08:27:15;27.38;;;17.17;;
54679;SDS011;40578;53.178;5.846;2023-02-28T08:29:40;30.07;;;17.47;;
54679;SDS011;40578;53.178;5.846;2023-02-28T08:32:07;30.30;;;17.83;;
54679;SDS011;40578;53.178;5.846;2023-02-28T08:34:32;32.78;;;17.73;;
54679;SDS011;40578;53.178;5.846;2023-02-28T08:36:58;28.20;;;16.67;;
54679;SDS011;40578;53.178;5.846;2023-02-28T08:39:24;26.23;;;16.53;;
54679;SDS011;40578;53.178;5.846;2023-02-28T08:41:49;28.27;;;17.10;;
54679;SDS011;40578;53.178;5.846;2023-02-28T08:44:15;26.50;;;16.50;;
54679;SDS011;40578;53.178;5.846;2023-02-28T08:46:40;29.00;;;16.73;;
54679;SDS011;40578;53.178;5.846;2023-02-28T08:49:06;28.83;;;16.77;;
54679;SDS011;40578;53.178;5.846;2023-02-28T08:51:32;27.70;;;16.93;;
54679;SDS011;40578;53.178;5.846;2023-02-28T08:53:59;26.90;;;16.50;;
54679;SDS011;40578;53.178;5.846;2023-02-28T08:56:26;26.63;;;16.20;;
54679;SDS011;40578;53.178;5.846;2023-02-28T08:58:53;26.70;;;15.82;;
54679;SDS011;40578;53.178;5.846;2023-02-28T09:01:21;29.23;;;17.83;;
54679;SDS011;40578;53.178;5.846;2023-02-28T09:03:49;30.88;;;17.85;;
54679;SDS011;40578;53.178;5.846;2023-02-28T09:06:17;28.23;;;16.63;;
54679;SDS011;40578;53.178;5.846;2023-02-28T09:08:43;30.13;;;18.33;;
54679;SDS011;40578;53.178;5.846;2023-02-28T09:11:09;28.17;;;16.63;;
54679;SDS011;40578;53.178;5.846;2023-02-28T09:13:36;28.67;;;18.17;;
54679;SDS011;40578;53.178;5.846;2023-02-28T09:16:03;27.65;;;16.02;;
54679;SDS011;40578;53.178;5.846;2023-02-28T09:18:30;25.35;;;16.60;;
54679;SDS011;40578;53.178;5.846;2023-02-28T09:20:56;25.10;;;16.80;;
54679;SDS011;40578;53.178;5.846;2023-02-28T09:23:23;25.30;;;16.02;;
54679;SDS011;40578;53.178;5.846;2023-02-28T09:25:50;24.83;;;16.88;;
54679;SDS011;40578;53.178;5.846;2023-02-28T09:28:19;29.30;;;18.77;;
54679;SDS011;40578;53.178;5.846;2023-02-28T09:33:12;28.40;;;17.80;;
54679;SDS011;40578;53.178;5.846;2023-02-28T09:35:38;31.33;;;18.58;;
54679;SDS011;40578;53.178;5.846;2023-02-28T09:38:04;25.80;;;17.93;;
54679;SDS011;40578;53.178;5.846;2023-02-28T09:40:34;28.35;;;18.55;;
54679;SDS011;40578;53.178;5.846;2023-02-28T09:43:03;27.60;;;18.15;;
54679;SDS011;40578;53.178;5.846;2023-02-28T09:45:40;26.15;;;17.05;;
54679;SDS011;40578;53.178;5.846;2023-02-28T09:48:16;24.42;;;16.35;;
54679;SDS011;40578;53.178;5.846;2023-02-28T09:50:50;23.13;;;16.10;;
54679;SDS011;40578;53.178;5.846;2023-02-28T09:53:34;23.88;;;15.75;;
54679;SDS011;40578;53.178;5.846;2023-02-28T09:56:08;20.67;;;14.13;;
54679;SDS011;40578;53.178;5.846;2023-02-28T09:58:45;25.85;;;15.60;;
54679;SDS011;40578;53.178;5.846;2023-02-28T10:06:58;21.88;;;14.98;;
54679;SDS011;40578;53.178;5.846;2023-02-28T10:09:31;21.17;;;14.65;;
54679;SDS011;40578;53.178;5.846;2023-02-28T10:12:02;22.30;;;15.25;;
54679;SDS011;40578;53.178;5.846;2023-02-28T10:14:30;21.20;;;14.38;;
54679;SDS011;40578;53.178;5.846;2023-02-28T10:17:02;22.20;;;13.90;;
54679;SDS011;40578;53.178;5.846;2023-02-28T10:19:56;24.35;;;14.25;;
54679;SDS011;40578;53.178;5.846;2023-02-28T10:25:28;18.80;;;12.77;;
54679;SDS011;40578;53.178;5.846;2023-02-28T10:28:00;19.90;;;13.95;;
54679;SDS011;40578;53.178;5.846;2023-02-28T10:30:32;20.75;;;13.70;;
54679;SDS011;40578;53.178;5.846;2023-02-28T10:35:25;18.33;;;12.77;;
54679;SDS011;40578;53.178;5.846;2023-02-28T10:37:59;17.27;;;12.50;;
54679;SDS011;40578;53.178;5.846;2023-02-28T10:40:33;16.67;;;10.77;;
54679;SDS011;40578;53.178;5.846;2023-02-28T10:43:01;14.63;;;10.00;;
54679;SDS011;40578;53.178;5.846;2023-02-28T10:45:30;16.40;;;11.38;;
54679;SDS011;40578;53.178;5.846;2023-02-28T10:48:04;14.43;;;9.93;;
54679;SDS011;40578;53.178;5.846;2023-02-28T10:55:55;15.63;;;10.40;;
54679;SDS011;40578;53.178;5.846;2023-02-28T10:58:23;13.33;;;8.77;;
54679;SDS011;40578;53.178;5.846;2023-02-28T11:00:51;13.60;;;8.70;;
54679;SDS011;40578;53.178;5.846;2023-02-28T11:05:50;14.55;;;9.30;;
54679;SDS011;40578;53.178;5.846;2023-02-28T11:08:17;9.02;;;6.20;;
54679;SDS011;40578;53.178;5.846;2023-02-28T11:10:48;9.82;;;6.95;;
54679;SDS011;40578;53.178;5.846;2023-02-28T11:13:33;10.85;;;7.03;;
54679;SDS011;40578;53.178;5.846;2023-02-28T11:16:04;9.32;;;6.32;;
54679;SDS011;40578;53.178;5.846;2023-02-28T11:18:51;9.20;;;5.80;;
54679;SDS011;40578;53.178;5.846;2023-02-28T11:21:40;10.13;;;5.60;;
54679;SDS011;40578;53.178;5.846;2023-02-28T11:26:51;10.00;;;6.45;;
54679;SDS011;40578;53.178;5.846;2023-02-28T11:29:21;7.90;;;5.30;;
54679;SDS011;40578;53.178;5.846;2023-02-28T11:32:05;8.85;;;5.75;;
54679;SDS011;40578;53.178;5.846;2023-02-28T11:34:45;7.95;;;4.80;;
54679;SDS011;40578;53.178;5.846;2023-02-28T11:37:24;8.75;;;4.75;;
54679;SDS011;40578;53.178;5.846;2023-02-28T11:39:52;6.88;;;5.28;;
54679;SDS011;40578;53.178;5.846;2023-02-28T11:42:22;7.73;;;5.57;;
54679;SDS011;40578;53.178;5.846;2023-02-28T11:53:10;8.68;;;5.82;;
54679;SDS011;40578;53.178;5.846;2023-02-28T11:55:55;8.05;;;5.32;;
54679;SDS011;40578;53.178;5.846;2023-02-28T12:03:58;8.30;;;5.95;;
54679;SDS011;40578;53.178;5.846;2023-02-28T12:09:29;6.93;;;4.90;;
54679;SDS011;40578;53.178;5.846;2023-02-28T12:11:59;8.85;;;5.53;;
54679;SDS011;40578;53.178;5.846;2023-02-28T12:15:22;9.15;;;5.90;;
54679;SDS011;40578;53.178;5.846;2023-02-28T12:29:01;7.00;;;5.07;;
54679;SDS011;40578;53.178;5.846;2023-02-28T12:31:41;9.23;;;4.68;;
54679;SDS011;40578;53.178;5.846;2023-02-28T12:34:18;6.70;;;4.47;;
54679;SDS011;40578;53.178;5.846;2023-02-28T12:36:48;10.57;;;4.70;;
54679;SDS011;40578;53.178;5.846;2023-02-28T12:39:18;8.98;;;4.00;;
54679;SDS011;40578;53.178;5.846;2023-02-28T12:41:55;7.53;;;4.40;;
54679;SDS011;40578;53.178;5.846;2023-02-28T12:44:58;7.43;;;5.07;;
54679;SDS011;40578;53.178;5.846;2023-02-28T12:47:26;7.15;;;4.70;;
54679;SDS011;40578;53.178;5.846;2023-02-28T12:52:46;7.28;;;4.75;;
54679;SDS011;40578;53.178;5.846;2023-02-28T13:00:38;6.97;;;5.15;;
54679;SDS011;40578;53.178;5.846;2023-02-28T13:09:15;7.72;;;4.70;;
54679;SDS011;40578;53.178;5.846;2023-02-28T13:11:45;7.00;;;5.28;;
54679;SDS011;40578;53.178;5.846;2023-02-28T13:17:18;7.75;;;5.15;;
54679;SDS011;40578;53.178;5.846;2023-02-28T13:22:20;9.20;;;5.50;;
54679;SDS011;40578;53.178;5.846;2023-02-28T13:25:49;9.65;;;5.55;;
54679;SDS011;40578;53.178;5.846;2023-02-28T13:27:53;9.13;;;5.85;;
54679;SDS011;40578;53.178;5.846;2023-02-28T13:33:36;8.85;;;6.10;;
54679;SDS011;40578;53.178;5.846;2023-02-28T13:38:54;8.57;;;5.78;;
54679;SDS011;40578;53.178;5.846;2023-02-28T13:44:06;8.07;;;5.72;;
54679;SDS011;40578;53.178;5.846;2023-02-28T13:46:34;8.88;;;6.15;;
54679;SDS011;40578;53.178;5.846;2023-02-28T14:02:34;6.80;;;5.30;;
54679;SDS011;40578;53.178;5.846;2023-02-28T14:05:17;8.23;;;5.93;;
54679;SDS011;40578;53.178;5.846;2023-02-28T14:07:50;9.13;;;5.80;;
54679;SDS011;40578;53.178;5.846;2023-02-28T14:10:23;7.78;;;5.43;;
54679;SDS011;40578;53.178;5.846;2023-02-28T14:15:43;7.80;;;5.28;;
54679;SDS011;40578;53.178;5.846;2023-02-28T14:18:16;8.10;;;5.70;;
54679;SDS011;40578;53.178;5.846;2023-02-28T14:20:45;7.03;;;5.50;;
54679;SDS011;40578;53.178;5.846;2023-02-28T14:25:41;7.47;;;5.17;;
54679;SDS011;40578;53.178;5.846;2023-02-28T14:39:06;8.70;;;5.43;;
54679;SDS011;40578;53.178;5.846;2023-02-28T14:41:37;7.90;;;5.85;;
54679;SDS011;40578;53.178;5.846;2023-02-28T14:44:19;9.07;;;5.55;;
54679;SDS011;40578;53.178;5.846;2023-02-28T14:46:53;8.73;;;5.75;;
54679;SDS011;40578;53.178;5.846;2023-02-28T14:49:31;10.35;;;5.45;;
54679;SDS011;40578;53.178;5.846;2023-02-28T14:52:09;8.13;;;5.85;;
54679;SDS011;40578;53.178;5.846;2023-02-28T14:54:38;7.97;;;5.28;;
54679;SDS011;40578;53.178;5.846;2023-02-28T14:57:05;8.73;;;6.40;;
54679;SDS011;40578;53.178;5.846;2023-02-28T14:59:34;7.10;;;5.13;;
54679;SDS011;40578;53.178;5.846;2023-02-28T15:02:14;7.70;;;5.65;;
54679;SDS011;40578;53.178;5.846;2023-02-28T15:04:52;7.13;;;5.65;;
54679;SDS011;40578;53.178;5.846;2023-02-28T15:07:19;10.65;;;5.90;;
54679;SDS011;40578;53.178;5.846;2023-02-28T15:09:46;6.90;;;5.18;;
54679;SDS011;40578;53.178;5.846;2023-02-28T15:12:13;9.10;;;5.37;;
54679;SDS011;40578;53.178;5.846;2023-02-28T15:14:42;7.32;;;5.28;;
54679;SDS011;40578;53.178;5.846;2023-02-28T15:17:11;6.78;;;5.20;;
54679;SDS011;40578;53.178;5.846;2023-02-28T15:19:46;9.25;;;5.82;;
54679;SDS011;40578;53.178;5.846;2023-02-28T15:22:16;9.50;;;5.70;;
54679;SDS011;40578;53.178;5.846;2023-02-28T15:24:49;8.27;;;5.88;;
54679;SDS011;40578;53.178;5.846;2023-02-28T15:27:21;7.03;;;5.38;;
54679;SDS011;40578;53.178;5.846;2023-02-28T15:29:54;8.65;;;6.15;;
54679;SDS011;40578;53.178;5.846;2023-02-28T15:32:43;9.85;;;6.38;;
54679;SDS011;40578;53.178;5.846;2023-02-28T15:38:00;8.25;;;6.13;;
54679;SDS011;40578;53.178;5.846;2023-02-28T15:40:35;7.75;;;6.00;;
54679;SDS011;40578;53.178;5.846;2023-02-28T15:43:05;8.68;;;5.40;;
54679;SDS011;40578;53.178;5.846;2023-02-28T15:45:46;6.88;;;5.20;;
54679;SDS011;40578;53.178;5.846;2023-02-28T15:48:24;8.57;;;5.10;;
54679;SDS011;40578;53.178;5.846;2023-02-28T15:51:01;8.07;;;5.40;;
54679;SDS011;40578;53.178;5.846;2023-02-28T15:53:32;9.98;;;5.07;;
54679;SDS011;40578;53.178;5.846;2023-02-28T15:56:02;7.00;;;5.47;;
54679;SDS011;40578;53.178;5.846;2023-02-28T15:58:32;9.27;;;5.15;;
54679;SDS011;40578;53.178;5.846;2023-02-28T16:01:01;8.27;;;5.60;;
54679;SDS011;40578;53.178;5.846;2023-02-28T16:03:40;8.45;;;5.13;;
54679;SDS011;40578;53.178;5.846;2023-02-28T16:09:07;7.38;;;5.53;;
54679;SDS011;40578;53.178;5.846;2023-02-28T16:11:37;8.65;;;5.55;;
54679;SDS011;40578;53.178;5.846;2023-02-28T16:14:06;8.32;;;5.82;;
54679;SDS011;40578;53.178;5.846;2023-02-28T16:16:41;6.93;;;5.18;;
54679;SDS011;40578;53.178;5.846;2023-02-28T16:19:08;7.57;;;4.95;;
54679;SDS011;40578;53.178;5.846;2023-02-28T16:21:34;8.57;;;5.57;;
54679;SDS011;40578;53.178;5.846;2023-02-28T16:23:59;9.40;;;6.57;;
54679;SDS011;40578;53.178;5.846;2023-02-28T16:26:25;7.33;;;5.67;;
54679;SDS011;40578;53.178;5.846;2023-02-28T16:28:53;8.05;;;5.40;;
54679;SDS011;40578;53.178;5.846;2023-02-28T16:31:19;6.80;;;5.50;;
54679;SDS011;40578;53.178;5.846;2023-02-28T16:33:46;8.65;;;5.43;;
54679;SDS011;40578;53.178;5.846;2023-02-28T16:36:19;10.48;;;6.95;;
54679;SDS011;40578;53.178;5.846;2023-02-28T16:38:47;10.25;;;7.45;;
54679;SDS011;40578;53.178;5.846;2023-02-28T16:41:14;10.27;;;7.13;;
54679;SDS011;40578;53.178;5.846;2023-02-28T16:43:45;10.27;;;7.90;;
54679;SDS011;40578;53.178;5.846;2023-02-28T16:46:12;12.55;;;7.03;;
54679;SDS011;40578;53.178;5.846;2023-02-28T16:48:38;11.43;;;8.23;;
54679;SDS011;40578;53.178;5.846;2023-02-28T16:51:05;12.40;;;8.32;;
54679;SDS011;40578;53.178;5.846;2023-02-28T16:53:33;12.45;;;8.13;;
54679;SDS011;40578;53.178;5.846;2023-02-28T16:56:00;11.87;;;8.33;;
54679;SDS011;40578;53.178;5.846;2023-02-28T16:58:27;12.98;;;8.02;;
54679;SDS011;40578;53.178;5.846;2023-02-28T17:00:53;11.30;;;8.07;;
54679;SDS011;40578;53.178;5.846;2023-02-28T17:03:25;10.67;;;7.83;;
54679;SDS011;40578;53.178;5.846;2023-02-28T17:05:52;11.98;;;8.00;;
54679;SDS011;40578;53.178;5.846;2023-02-28T17:08:18;12.97;;;8.43;;
54679;SDS011;40578;53.178;5.846;2023-02-28T17:10:43;12.53;;;8.33;;
54679;SDS011;40578;53.178;5.846;2023-02-28T17:13:09;15.87;;;9.00;;
54679;SDS011;40578;53.178;5.846;2023-02-28T17:15:35;11.30;;;8.13;;
54679;SDS011;40578;53.178;5.846;2023-02-28T17:18:01;12.90;;;8.55;;
54679;SDS011;40578;53.178;5.846;2023-02-28T17:20:27;12.97;;;7.87;;
54679;SDS011;40578;53.178;5.846;2023-02-28T17:22:53;11.23;;;8.40;;
54679;SDS011;40578;53.178;5.846;2023-02-28T17:25:20;10.60;;;7.57;;
54679;SDS011;40578;53.178;5.846;2023-02-28T17:27:46;11.13;;;8.15;;
54679;SDS011;40578;53.178;5.846;2023-02-28T17:30:16;11.88;;;8.98;;
54679;SDS011;40578;53.178;5.846;2023-02-28T17:32:43;12.80;;;9.05;;
54679;SDS011;40578;53.178;5.846;2023-02-28T17:35:09;13.70;;;8.80;;